Time;durP1;ratioP1;P1;durP2;ratioP2;P2;SDS_P1;SDS_P2;PMS_P1;PMS_P2;Temp;Humidity;BMP_temperature;BMP_pressure;BME280_temperature;BME280_humidity;BME280_pressure;Samples;Min_cycle;Max_cycle;Signal;HPM_P1;HPM_P2
2023/01/05 00:01:50;;;;;;;37.33;19.58;;;7.10;93.60;;;;;;5063706;28;20439;-79
2023/01/05 00:04:18;;;;;;;36.73;18.37;;;7.10;93.80;;;;;;5070141;28;20195;-80
2023/01/05 00:06:49;;;;;;;32.07;17.47;;;7.10;93.70;;;;;;5068348;28;20694;-79
2023/01/05 00:09:18;;;;;;;37.73;18.13;;;7.00;93.60;;;;;;5071664;28;20220;-80
2023/01/05 00:23:00;;;;;;;33.63;16.97;;;6.90;93.50;;;;;;5067905;28;20191;-79
2023/01/05 00:25:30;;;;;;;33.97;16.13;;;6.90;93.50;;;;;;5068525;28;20212;-80
2023/01/05 00:27:58;;;;;;;34.43;17.00;;;6.90;93.50;;;;;;5051050;28;20201;-80
2023/01/05 00:30:29;;;;;;;34.20;15.13;;;6.90;93.40;;;;;;5065329;28;20195;-80
2023/01/05 00:32:58;;;;;;;30.23;14.63;;;6.90;93.40;;;;;;5067823;28;20194;-80
2023/01/05 00:35:26;;;;;;;32.28;16.10;;;6.90;93.40;;;;;;5064325;28;20361;-79
2023/01/05 00:37:55;;;;;;;29.03;15.47;;;6.90;93.40;;;;;;5065146;28;20651;-80
2023/01/05 00:40:24;;;;;;;27.70;14.53;;;6.90;93.40;;;;;;5066566;28;20258;-81
2023/01/05 00:42:53;;;;;;;31.37;15.87;;;6.80;93.40;;;;;;5068061;28;20202;-79
2023/01/05 00:45:21;;;;;;;30.73;15.97;;;6.90;93.40;;;;;;5065555;28;20195;-80
2023/01/05 00:47:52;;;;;;;32.87;16.63;;;6.80;93.50;;;;;;5067552;28;20218;-80
2023/01/05 00:50:22;;;;;;;28.27;14.63;;;6.80;93.40;;;;;;5070313;28;20639;-79
2023/01/05 00:52:50;;;;;;;32.57;15.70;;;6.80;93.50;;;;;;5066736;28;20202;-80
2023/01/05 00:55:18;;;;;;;31.57;15.70;;;6.80;93.50;;;;;;5064711;28;20591;-79
2023/01/05 00:57:48;;;;;;;31.67;15.60;;;6.70;93.50;;;;;;5069234;28;20209;-79
2023/01/05 01:00:19;;;;;;;33.78;18.10;;;6.70;93.50;;;;;;5063232;28;20840;-79
2023/01/05 01:02:47;;;;;;;27.03;14.50;;;6.70;93.70;;;;;;5065796;28;20300;-79
2023/01/05 01:05:15;;;;;;;31.40;15.13;;;6.70;93.70;;;;;;5062140;28;20209;-79
2023/01/05 01:07:44;;;;;;;30.90;15.10;;;6.70;93.70;;;;;;5063656;28;20268;-80
2023/01/05 01:10:12;;;;;;;33.33;15.30;;;6.60;94.00;;;;;;5069253;28;20258;-80
2023/01/05 01:12:41;;;;;;;28.90;15.50;;;6.60;94.00;;;;;;5064993;28;20209;-79
2023/01/05 01:15:11;;;;;;;29.40;14.63;;;6.60;94.10;;;;;;5062846;28;20195;-80
2023/01/05 01:17:39;;;;;;;29.53;14.27;;;6.60;94.20;;;;;;5066620;28;20220;-80
2023/01/05 01:20:09;;;;;;;26.97;13.27;;;6.70;94.30;;;;;;5070169;28;20206;-80
2023/01/05 01:22:37;;;;;;;33.90;13.80;;;6.70;94.40;;;;;;5070325;28;20213;-80
2023/01/05 01:25:06;;;;;;;28.27;14.03;;;6.70;94.70;;;;;;5069186;28;20654;-80
2023/01/05 01:27:34;;;;;;;30.37;14.80;;;6.70;94.90;;;;;;5069097;28;20213;-80
2023/01/05 01:30:04;;;;;;;29.60;14.83;;;6.80;94.80;;;;;;5067424;28;20231;-80
2023/01/05 01:32:33;;;;;;;33.20;15.00;;;6.80;94.90;;;;;;5068282;28;20231;-80
2023/01/05 01:35:01;;;;;;;26.23;13.33;;;6.80;94.80;;;;;;5068100;28;20221;-80
2023/01/05 01:37:30;;;;;;;24.13;12.30;;;6.70;95.00;;;;;;5067637;28;20195;-80
2023/01/05 01:39:58;;;;;;;25.27;13.00;;;6.80;95.00;;;;;;5063305;28;20198;-79
2023/01/05 01:42:26;;;;;;;27.27;14.20;;;6.80;95.10;;;;;;5071219;28;20569;-80
2023/01/05 01:44:57;;;;;;;30.10;14.37;;;6.80;95.40;;;;;;5069514;28;20224;-79
2023/01/05 01:47:35;;;;;;;28.43;13.47;;;6.80;95.30;;;;;;5063478;28;20618;-80
2023/01/05 01:50:10;;;;;;;27.33;13.23;;;6.80;95.30;;;;;;5062792;28;20591;-80
2023/01/05 01:52:39;;;;;;;31.77;14.93;;;6.80;95.40;;;;;;5072999;28;20572;-78
2023/01/05 01:55:08;;;;;;;28.57;13.43;;;6.80;95.70;;;;;;5074202;28;20255;-79
2023/01/05 01:57:37;;;;;;;27.47;13.33;;;6.80;96.10;;;;;;5065524;28;20197;-80
2023/01/05 02:00:07;;;;;;;24.70;12.73;;;6.80;96.30;;;;;;5075217;28;20260;-78
2023/01/05 02:02:37;;;;;;;32.37;14.50;;;6.90;96.10;;;;;;5072245;28;20198;-78
2023/01/05 02:05:11;;;;;;;27.57;13.10;;;6.90;96.10;;;;;;5071532;28;20610;-79
2023/01/05 02:07:44;;;;;;;23.03;13.03;;;7.00;96.50;;;;;;5072649;28;20687;-79
2023/01/05 02:10:14;;;;;;;28.23;11.57;;;7.00;96.00;;;;;;5067115;28;20237;-78
2023/01/05 02:12:58;;;;;;;21.50;12.17;;;7.00;96.00;;;;;;5070875;28;20209;-77
2023/01/05 02:15:36;;;;;;;26.27;13.77;;;7.00;96.00;;;;;;5070574;28;20236;-78
2023/01/05 02:18:20;;;;;;;29.23;13.20;;;7.00;95.90;;;;;;5072342;28;20193;-78
2023/01/05 02:21:07;;;;;;;28.63;14.02;;;7.00;95.70;;;;;;5064753;28;20439;-78
2023/01/05 02:24:11;;;;;;;23.60;12.50;;;7.00;95.90;;;;;;5070886;28;20198;-78
2023/01/05 02:27:18;;;;;;;25.97;12.63;;;6.90;95.50;;;;;;5067366;28;20966;-77
2023/01/05 02:30:33;;;;;;;19.87;11.47;;;6.90;95.50;;;;;;5063740;28;20197;-77
2023/01/05 02:33:11;;;;;;;28.07;12.67;;;6.90;95.60;;;;;;5069946;28;20368;-78
2023/01/05 02:35:46;;;;;;;24.87;11.30;;;6.90;95.70;;;;;;5071371;28;20745;-78
2023/01/05 02:38:23;;;;;;;29.90;13.87;;;6.80;95.80;;;;;;5071641;28;20266;-77
2023/01/05 02:40:57;;;;;;;30.23;13.30;;;6.80;95.70;;;;;;5070040;28;20190;-75
2023/01/05 02:43:27;;;;;;;26.10;12.47;;;6.80;95.70;;;;;;5071180;28;20251;-79
2023/01/05 02:45:55;;;;;;;23.03;12.00;;;6.80;95.60;;;;;;5069231;28;20569;-77
2023/01/05 02:48:25;;;;;;;26.37;11.93;;;6.80;95.50;;;;;;5071515;28;20222;-76
2023/01/05 02:51:00;;;;;;;23.93;11.37;;;6.70;95.60;;;;;;5071525;28;20724;-78
2023/01/05 02:53:32;;;;;;;25.97;12.03;;;6.80;95.50;;;;;;5068664;28;20237;-78
2023/01/05 02:56:06;;;;;;;26.37;12.37;;;6.80;95.60;;;;;;5070415;28;20600;-78
2023/01/05 02:58:39;;;;;;;25.40;12.63;;;6.80;95.60;;;;;;5070531;28;20896;-78
2023/01/05 03:01:10;;;;;;;26.23;12.23;;;6.80;95.50;;;;;;5065293;28;20244;-78
2023/01/05 03:03:43;;;;;;;23.60;12.07;;;6.70;95.50;;;;;;5071140;28;20201;-79
2023/01/05 03:06:16;;;;;;;23.50;11.70;;;6.70;95.60;;;;;;5070857;28;20194;-77
2023/01/05 03:08:50;;;;;;;22.50;11.33;;;6.70;95.60;;;;;;5071933;28;20209;-79
2023/01/05 03:14:12;;;;;;;23.50;11.10;;;6.70;95.50;;;;;;5067323;28;20204;-78
2023/01/05 03:16:41;;;;;;;26.67;12.47;;;6.70;95.40;;;;;;5070405;28;20374;-79
2023/01/05 03:36:11;;;;;;;26.43;11.90;;;6.50;95.50;;;;;;5068584;28;20731;-78
2023/01/05 03:38:42;;;;;;;25.43;12.57;;;6.50;95.60;;;;;;5072878;28;20592;-78
2023/01/05 03:41:16;;;;;;;22.03;11.53;;;6.50;95.60;;;;;;5067283;28;20781;-78
2023/01/05 03:43:47;;;;;;;26.00;11.93;;;6.50;95.60;;;;;;5069119;28;20197;-79
2023/01/05 03:46:20;;;;;;;30.03;13.40;;;6.50;95.60;;;;;;5068968;28;20248;-78
2023/01/05 03:48:48;;;;;;;23.20;12.17;;;6.40;95.80;;;;;;5071272;28;20202;-78
2023/01/05 03:51:18;;;;;;;25.60;13.20;;;6.50;95.80;;;;;;5063536;28;20267;-79
2023/01/05 03:53:46;;;;;;;24.60;12.70;;;6.40;95.70;;;;;;5072687;28;20716;-79
2023/01/05 03:56:15;;;;;;;27.07;12.70;;;6.40;95.80;;;;;;5070261;28;20198;-79
2023/01/05 03:58:43;;;;;;;31.53;14.10;;;6.40;95.70;;;;;;5070609;28;20198;-79
2023/01/05 04:01:11;;;;;;;29.60;14.97;;;6.30;95.60;;;;;;5069039;28;20223;-77
2023/01/05 04:03:40;;;;;;;27.63;14.40;;;6.30;95.60;;;;;;5071022;28;20288;-78
2023/01/05 04:06:09;;;;;;;27.07;13.77;;;6.20;95.70;;;;;;5070936;28;20198;-76
2023/01/05 04:08:38;;;;;;;27.57;14.03;;;6.20;95.80;;;;;;5070961;28;20226;-77
2023/01/05 04:11:15;;;;;;;30.90;13.37;;;6.20;95.90;;;;;;5071365;28;20199;-77
2023/01/05 04:13:44;;;;;;;28.37;13.23;;;6.10;95.90;;;;;;5069921;28;20197;-76
2023/01/05 04:16:12;;;;;;;28.40;12.93;;;6.10;96.10;;;;;;5070035;28;20279;-78
2023/01/05 04:18:41;;;;;;;32.87;13.23;;;6.20;96.00;;;;;;5068301;28;20650;-78
2023/01/05 04:21:09;;;;;;;26.53;12.67;;;6.10;96.00;;;;;;5070967;28;20805;-79
2023/01/05 04:23:39;;;;;;;25.53;12.07;;;6.10;96.10;;;;;;5066368;28;20203;-78
2023/01/05 04:26:08;;;;;;;26.50;12.83;;;6.10;96.10;;;;;;5066977;28;20198;-78
2023/01/05 04:28:36;;;;;;;27.30;12.63;;;6.10;96.10;;;;;;5066195;28;20253;-78
2023/01/05 04:31:04;;;;;;;26.20;10.80;;;6.10;96.10;;;;;;5071293;28;20342;-79
2023/01/05 04:33:33;;;;;;;23.67;11.60;;;6.10;96.10;;;;;;5069031;28;20215;-79
2023/01/05 04:36:01;;;;;;;22.00;11.90;;;6.10;96.20;;;;;;5072180;28;20205;-77
2023/01/05 04:38:29;;;;;;;24.17;11.37;;;6.00;96.10;;;;;;5066604;28;20536;-78
2023/01/05 04:40:59;;;;;;;26.90;11.70;;;5.90;95.90;;;;;;5062847;28;20204;-76
2023/01/05 04:43:27;;;;;;;26.40;11.93;;;5.90;95.90;;;;;;5069953;28;20291;-78
2023/01/05 04:45:56;;;;;;;22.70;10.67;;;5.80;95.90;;;;;;5067989;28;20205;-78
2023/01/05 04:48:24;;;;;;;22.23;11.80;;;5.70;95.90;;;;;;5064836;28;20223;-78
2023/01/05 04:50:54;;;;;;;21.37;11.10;;;5.70;95.90;;;;;;5066202;28;20196;-77
2023/01/05 04:53:22;;;;;;;22.93;11.67;;;5.70;96.00;;;;;;5070969;28;20200;-78
2023/01/05 04:55:51;;;;;;;17.90;10.67;;;5.60;96.00;;;;;;5064712;28;20589;-78
2023/01/05 04:58:21;;;;;;;23.43;12.10;;;5.70;96.10;;;;;;5068739;28;20198;-77
2023/01/05 05:00:49;;;;;;;29.77;13.10;;;5.60;96.20;;;;;;5065908;28;20209;-77
2023/01/05 05:03:18;;;;;;;24.63;12.73;;;5.60;96.20;;;;;;5067130;28;20299;-76
2023/01/05 05:05:46;;;;;;;24.87;11.50;;;5.50;96.40;;;;;;5068851;28;20203;-79
2023/01/05 05:08:14;;;;;;;26.63;12.90;;;5.50;96.50;;;;;;5063061;28;20212;-77
2023/01/05 05:10:43;;;;;;;25.43;13.10;;;5.50;96.60;;;;;;5067014;28;20647;-78
2023/01/05 05:13:11;;;;;;;27.23;12.33;;;5.50;96.70;;;;;;5067775;28;20196;-79
2023/01/05 05:15:41;;;;;;;27.27;12.53;;;5.60;96.70;;;;;;5068699;28;20634;-77
2023/01/05 05:18:09;;;;;;;24.97;12.97;;;5.60;96.80;;;;;;5064433;28;20807;-77
2023/01/05 05:20:38;;;;;;;27.07;13.87;;;5.60;96.90;;;;;;5072294;28;20726;-77
2023/01/05 05:23:06;;;;;;;25.70;11.83;;;5.50;97.10;;;;;;5071048;28;20198;-79
2023/01/05 05:25:34;;;;;;;19.97;11.70;;;5.50;97.30;;;;;;5063830;28;20253;-79
2023/01/05 05:28:03;;;;;;;23.47;12.27;;;5.60;97.30;;;;;;5063126;28;20248;-77
2023/01/05 05:30:31;;;;;;;25.20;12.40;;;5.60;97.50;;;;;;5065963;28;20238;-78
2023/01/05 05:33:01;;;;;;;26.77;13.20;;;5.60;97.60;;;;;;5068474;28;20231;-78
2023/01/05 05:35:29;;;;;;;24.50;12.47;;;5.70;97.60;;;;;;5065316;28;20206;-78
2023/01/05 05:37:57;;;;;;;31.03;12.47;;;5.70;97.60;;;;;;5069982;28;20204;-79
2023/01/05 05:40:27;;;;;;;25.27;12.53;;;5.70;97.60;;;;;;5069691;28;20259;-78
2023/01/05 05:42:55;;;;;;;26.67;12.60;;;5.70;97.70;;;;;;5071511;28;20217;-77
2023/01/05 05:45:23;;;;;;;26.60;12.87;;;5.70;97.80;;;;;;5072332;28;20202;-76
2023/01/05 05:47:52;;;;;;;25.77;12.10;;;5.70;98.00;;;;;;5070656;28;20257;-76
2023/01/05 05:50:21;;;;;;;30.27;13.07;;;5.80;98.00;;;;;;5069878;28;20218;-78
2023/01/05 05:52:50;;;;;;;30.57;12.57;;;5.80;98.00;;;;;;5066301;28;20257;-78
2023/01/05 05:55:18;;;;;;;31.07;13.73;;;5.80;98.20;;;;;;5068737;28;20200;-78
2023/01/05 05:57:46;;;;;;;36.43;13.83;;;5.90;98.30;;;;;;5067083;28;20671;-76
2023/01/05 06:00:16;;;;;;;24.93;11.97;;;5.90;98.20;;;;;;5071384;28;20254;-78
2023/01/05 06:02:44;;;;;;;31.93;14.03;;;6.00;98.20;;;;;;5061756;28;20287;-77
2023/01/05 06:05:12;;;;;;;35.67;14.20;;;6.00;98.50;;;;;;5069685;28;20209;-77
2023/01/05 06:07:42;;;;;;;37.83;14.33;;;6.00;98.70;;;;;;5068880;28;20200;-77
2023/01/05 06:10:10;;;;;;;41.17;15.00;;;6.00;98.90;;;;;;5066850;28;20248;-77
2023/01/05 06:12:39;;;;;;;35.57;13.40;;;6.00;99.20;;;;;;5061112;28;20197;-79
2023/01/05 06:15:08;;;;;;;42.90;16.13;;;6.00;99.40;;;;;;5064718;28;20220;-79
2023/01/05 06:17:37;;;;;;;39.20;14.30;;;6.00;99.90;;;;;;5062976;28;20261;-78
2023/01/05 06:20:07;;;;;;;38.00;14.63;;;6.10;99.90;;;;;;5062163;28;20201;-79
2023/01/05 06:22:35;;;;;;;42.63;15.43;;;6.10;99.80;;;;;;5069183;28;20202;-77
2023/01/05 06:25:06;;;;;;;39.17;14.43;;;6.20;99.90;;;;;;5068831;28;20203;-79
2023/01/05 06:27:34;;;;;;;35.53;14.83;;;6.20;99.90;;;;;;5070161;28;20591;-78
2023/01/05 06:30:03;;;;;;;36.83;14.60;;;6.20;99.90;;;;;;5067187;28;20222;-78
2023/01/05 06:32:31;;;;;;;42.97;14.87;;;6.30;99.90;;;;;;5066425;28;20210;-78
2023/01/05 06:34:59;;;;;;;39.40;16.55;;;6.30;99.90;;;;;;5065477;28;20431;-77
2023/01/05 06:37:28;;;;;;;35.53;14.43;;;6.40;99.90;;;;;;5068107;28;20202;-75
2023/01/05 06:39:56;;;;;;;34.77;15.27;;;6.40;99.90;;;;;;5069540;28;20646;-78
2023/01/05 06:42:26;;;;;;;36.87;14.57;;;6.40;99.90;;;;;;5074143;28;20585;-78
2023/01/05 06:44:54;;;;;;;30.27;13.77;;;6.50;99.90;;;;;;5068727;28;20210;-79
2023/01/05 06:47:22;;;;;;;40.97;14.70;;;6.50;99.90;;;;;;5062169;28;20212;-78
2023/01/05 06:49:51;;;;;;;33.70;14.77;;;6.50;99.90;;;;;;5069895;28;20218;-76
2023/01/05 06:52:19;;;;;;;37.77;14.47;;;6.50;99.90;;;;;;5070800;28;20199;-78
2023/01/05 06:54:47;;;;;;;33.53;14.67;;;6.60;99.90;;;;;;5072729;28;20260;-78
2023/01/05 06:57:15;;;;;;;32.40;13.53;;;6.70;99.90;;;;;;5065628;28;20721;-76
2023/01/05 06:59:45;;;;;;;32.45;15.02;;;6.60;99.90;;;;;;5056638;28;20467;-79
2023/01/05 07:02:14;;;;;;;30.83;13.27;;;6.70;99.90;;;;;;5065477;28;20542;-78
2023/01/05 07:04:43;;;;;;;36.63;13.97;;;6.70;99.90;;;;;;5063562;28;20764;-78
2023/01/05 07:07:12;;;;;;;31.00;13.57;;;6.70;99.90;;;;;;5072676;28;21532;-77
2023/01/05 07:09:41;;;;;;;31.58;13.73;;;6.80;99.90;;;;;;5069431;28;20493;-78
2023/01/05 07:12:09;;;;;;;27.37;12.63;;;6.80;99.90;;;;;;5067482;28;20289;-79
2023/01/05 07:14:38;;;;;;;31.73;12.70;;;6.90;99.90;;;;;;5065972;28;20208;-78
2023/01/05 07:17:07;;;;;;;31.30;12.50;;;6.90;99.90;;;;;;5066913;28;20254;-78
2023/01/05 07:19:36;;;;;;;30.37;12.23;;;6.90;99.90;;;;;;5059862;28;20191;-77
2023/01/05 07:22:04;;;;;;;31.13;14.23;;;7.00;99.90;;;;;;5071890;28;20560;-78
2023/01/05 07:24:33;;;;;;;32.17;13.47;;;6.90;99.90;;;;;;5068003;28;20201;-78
2023/01/05 07:27:01;;;;;;;28.47;13.70;;;7.00;99.90;;;;;;5072660;28;20534;-78
2023/01/05 07:29:36;;;;;;;34.20;13.63;;;7.00;99.90;;;;;;5069367;28;20252;-78
2023/01/05 07:32:07;;;;;;;30.00;12.73;;;7.00;99.90;;;;;;5069130;28;20226;-78
2023/01/05 07:34:36;;;;;;;31.07;13.13;;;7.10;99.90;;;;;;5070739;28;20197;-78
2023/01/05 07:37:04;;;;;;;32.83;13.70;;;7.10;99.90;;;;;;5071627;28;20191;-76
2023/01/05 07:39:32;;;;;;;31.27;13.10;;;7.20;99.90;;;;;;5067352;28;20255;-77
2023/01/05 07:42:01;;;;;;;30.07;13.60;;;7.20;99.90;;;;;;5068871;28;20195;-79
2023/01/05 07:44:29;;;;;;;30.83;12.83;;;7.20;99.90;;;;;;5070324;28;20202;-77
2023/01/05 07:46:58;;;;;;;34.40;13.37;;;7.20;99.90;;;;;;5070959;28;20206;-78
2023/01/05 07:49:28;;;;;;;30.03;14.27;;;7.30;99.90;;;;;;5065433;28;20211;-78
2023/01/05 07:51:57;;;;;;;32.93;14.20;;;7.40;99.90;;;;;;5070508;28;20190;-78
2023/01/05 07:54:26;;;;;;;29.80;13.67;;;7.40;99.80;;;;;;5064904;28;20594;-77
2023/01/05 07:56:54;;;;;;;31.97;12.97;;;7.40;99.80;;;;;;5062302;28;20198;-77
2023/01/05 07:59:22;;;;;;;26.97;13.07;;;7.40;99.80;;;;;;5060684;28;20206;-78
2023/01/05 08:01:51;;;;;;;27.30;13.30;;;7.40;99.90;;;;;;5066503;28;20202;-78
2023/01/05 08:04:19;;;;;;;27.43;11.90;;;7.50;99.70;;;;;;5066753;28;20210;-78
2023/01/05 08:06:51;;;;;;;26.80;12.93;;;7.50;99.60;;;;;;5065385;28;20900;-79
2023/01/05 08:12:05;;;;;;;29.33;13.85;;;7.60;99.50;;;;;;5068296;28;20450;-78
2023/01/05 08:14:34;;;;;;;26.70;12.83;;;7.70;99.90;;;;;;5065062;28;20268;-78
2023/01/05 08:17:02;;;;;;;24.07;11.43;;;7.70;99.60;;;;;;5064212;28;20309;-76
2023/01/05 08:19:30;;;;;;;25.50;12.43;;;7.70;99.40;;;;;;5065792;28;20206;-78
2023/01/05 08:22:00;;;;;;;27.33;12.13;;;7.70;99.10;;;;;;5068966;28;20705;-77
2023/01/05 08:24:28;;;;;;;27.33;11.87;;;7.70;98.80;;;;;;5066627;28;20230;-76
2023/01/05 08:26:57;;;;;;;28.87;11.23;;;7.70;98.80;;;;;;5060900;28;20195;-76
2023/01/05 08:29:25;;;;;;;26.67;13.10;;;7.70;98.90;;;;;;5065437;28;20205;-76
2023/01/05 08:31:54;;;;;;;27.87;13.00;;;7.80;98.90;;;;;;5067285;28;20625;-78
2023/01/05 08:34:23;;;;;;;23.87;11.40;;;7.70;98.80;;;;;;5067478;28;20595;-79
2023/01/05 08:37:01;;;;;;;24.60;11.20;;;7.70;98.70;;;;;;5071039;28;20190;-78
2023/01/05 08:39:29;;;;;;;23.13;11.50;;;7.70;98.70;;;;;;5070004;28;20206;-76
2023/01/05 08:41:58;;;;;;;24.83;11.00;;;7.70;98.70;;;;;;5066100;28;20255;-76
2023/01/05 08:44:30;;;;;;;24.67;11.37;;;7.70;98.70;;;;;;5070922;28;20233;-77
2023/01/05 08:46:58;;;;;;;27.30;12.30;;;7.70;98.90;;;;;;5067386;28;20597;-80
2023/01/05 08:49:26;;;;;;;29.10;11.87;;;7.80;98.80;;;;;;5066624;28;20629;-76
2023/01/05 08:51:55;;;;;;;22.20;10.77;;;7.80;98.80;;;;;;5076017;28;20264;-76
2023/01/05 08:54:24;;;;;;;25.47;12.23;;;7.80;98.80;;;;;;5071238;28;20704;-76
2023/01/05 08:56:53;;;;;;;25.03;12.40;;;7.80;98.80;;;;;;5068756;28;20663;-77
2023/01/05 08:59:21;;;;;;;32.83;13.97;;;7.90;98.80;;;;;;5063559;28;20244;-79
2023/01/05 09:01:50;;;;;;;26.87;12.07;;;7.80;98.80;;;;;;5068492;28;20565;-79
2023/01/05 09:04:25;;;;;;;24.30;11.80;;;7.80;98.80;;;;;;5059438;28;20190;-79
2023/01/05 09:06:57;;;;;;;25.37;12.53;;;7.90;98.90;;;;;;5061264;28;20195;-79
2023/01/05 09:09:28;;;;;;;25.90;12.20;;;7.90;98.90;;;;;;5061453;28;20198;-79
2023/01/05 09:12:00;;;;;;;25.30;11.63;;;7.90;98.80;;;;;;5066641;28;20265;-79
2023/01/05 09:14:28;;;;;;;33.37;13.17;;;8.00;98.90;;;;;;5062844;28;20561;-79
2023/01/05 09:16:56;;;;;;;28.13;13.53;;;8.00;98.80;;;;;;5048282;28;20520;-79
2023/01/05 09:19:36;;;;;;;28.20;12.60;;;8.00;98.90;;;;;;5043900;28;20202;-79
2023/01/05 09:22:04;;;;;;;26.17;12.37;;;8.10;98.90;;;;;;5049164;28;20655;-78
2023/01/05 09:24:35;;;;;;;26.97;12.10;;;8.10;98.80;;;;;;5048325;28;20591;-79
2023/01/05 09:27:06;;;;;;;29.33;12.93;;;8.10;98.90;;;;;;5047685;28;20249;-79
2023/01/05 09:29:34;;;;;;;25.53;12.50;;;8.10;98.80;;;;;;5044475;28;20191;-77
2023/01/05 09:32:02;;;;;;;29.00;14.73;;;8.10;98.80;;;;;;5042635;28;20226;-76
2023/01/05 09:34:31;;;;;;;26.67;12.23;;;8.10;98.90;;;;;;5044952;28;20605;-78
2023/01/05 09:36:59;;;;;;;25.80;13.13;;;8.20;98.90;;;;;;5046289;28;20300;-77
2023/01/05 09:39:27;;;;;;;29.98;15.10;;;8.20;99.00;;;;;;5047912;28;20495;-77
2023/01/05 09:42:01;;;;;;;25.10;12.03;;;8.30;99.10;;;;;;5045250;28;20658;-77
2023/01/05 09:44:31;;;;;;;26.90;13.07;;;8.30;99.30;;;;;;5049591;28;20484;-78
2023/01/05 09:47:03;;;;;;;24.50;12.13;;;8.40;99.00;;;;;;5050269;28;20579;-80
2023/01/05 09:49:33;;;;;;;23.97;12.23;;;8.50;98.90;;;;;;5046798;28;20199;-77
2023/01/05 09:52:08;;;;;;;27.53;12.20;;;8.60;99.00;;;;;;5044241;28;20565;-79
2023/01/05 09:54:38;;;;;;;27.87;12.17;;;8.70;98.70;;;;;;5050459;28;20194;-77
2023/01/05 09:57:16;;;;;;;22.47;11.23;;;8.80;98.70;;;;;;5045501;28;20191;-77
2023/01/05 09:59:46;;;;;;;23.80;11.40;;;8.90;98.70;;;;;;5048446;28;20194;-78
2023/01/05 10:02:25;;;;;;;25.83;13.03;;;8.90;98.20;;;;;;5047239;28;20200;-79
2023/01/05 10:04:55;;;;;;;27.17;12.40;;;9.00;98.40;;;;;;5044273;28;20667;-80
2023/01/05 10:07:38;;;;;;;25.83;12.33;;;9.10;98.40;;;;;;5044878;28;20651;-81
2023/01/05 10:10:15;;;;;;;23.60;12.30;;;9.20;98.10;;;;;;5044475;28;20196;-79
2023/01/05 10:13:04;;;;;;;23.00;11.33;;;9.40;98.10;;;;;;5051536;28;20277;-78
2023/01/05 10:15:40;;;;;;;22.70;12.17;;;9.40;97.60;;;;;;5048766;28;20226;-79
2023/01/05 10:18:12;;;;;;;23.17;12.33;;;9.40;97.40;;;;;;5053707;28;20191;-77
2023/01/05 10:20:52;;;;;;;26.50;13.47;;;9.50;97.30;;;;;;5048744;28;20269;-78
2023/01/05 10:23:44;;;;;;;22.07;11.40;;;9.50;97.00;;;;;;5054773;28;20195;-78
2023/01/05 10:26:19;;;;;;;23.30;12.00;;;9.60;97.20;;;;;;5049944;28;20191;-78
2023/01/05 10:28:55;;;;;;;27.47;12.23;;;9.60;97.10;;;;;;5057564;28;20203;-78
2023/01/05 10:31:27;;;;;;;30.03;12.87;;;9.60;96.90;;;;;;5043156;28;20207;-78
2023/01/05 10:34:03;;;;;;;26.07;13.23;;;9.60;96.80;;;;;;5050017;28;20218;-78
2023/01/05 10:37:03;;;;;;;23.93;12.33;;;9.70;96.90;;;;;;5051350;28;20564;-77
2023/01/05 10:39:59;;;;;;;25.00;12.07;;;9.70;97.00;;;;;;5054151;28;20660;-80
2023/01/05 10:42:39;;;;;;;25.63;13.00;;;9.70;97.00;;;;;;5049275;28;20210;-80
2023/01/05 10:45:11;;;;;;;25.10;12.23;;;9.70;96.90;;;;;;5052800;28;20198;-77
2023/01/05 10:47:40;;;;;;;23.50;11.93;;;9.70;96.90;;;;;;5046001;28;20202;-78
2023/01/05 10:50:37;;;;;;;23.60;11.53;;;9.60;96.90;;;;;;5053028;28;20191;-79
2023/01/05 10:53:11;;;;;;;25.33;12.00;;;9.60;97.10;;;;;;5044642;28;20191;-77
2023/01/05 10:55:48;;;;;;;27.97;13.63;;;9.50;96.90;;;;;;5049923;28;20264;-77
2023/01/05 10:58:24;;;;;;;22.27;12.20;;;9.50;97.00;;;;;;5049797;28;20290;-77
2023/01/05 11:00:56;;;;;;;25.00;12.70;;;9.40;97.00;;;;;;5049842;28;20201;-78
2023/01/05 11:03:33;;;;;;;27.70;12.27;;;9.40;97.10;;;;;;5045706;28;20199;-78
2023/01/05 11:06:23;;;;;;;24.10;12.07;;;9.40;97.20;;;;;;5043304;28;20225;-78
2023/01/05 11:08:52;;;;;;;23.80;13.10;;;9.40;97.20;;;;;;5047118;28;20591;-76
2023/01/05 11:11:23;;;;;;;26.10;12.90;;;9.40;97.20;;;;;;5054477;28;20645;-78
2023/01/05 11:13:56;;;;;;;22.83;11.53;;;9.40;97.30;;;;;;5046667;28;20200;-78
2023/01/05 11:16:28;;;;;;;26.00;11.77;;;9.40;97.30;;;;;;5050727;28;20643;-80
2023/01/05 11:18:59;;;;;;;24.67;12.43;;;9.50;97.20;;;;;;5049400;28;20230;-77
2023/01/05 11:21:42;;;;;;;28.47;12.77;;;9.50;97.30;;;;;;5045424;28;20207;-78
2023/01/05 11:24:28;;;;;;;24.97;12.10;;;9.50;97.30;;;;;;5044876;28;20195;-77
2023/01/05 11:26:58;;;;;;;23.17;11.77;;;9.50;97.30;;;;;;5056031;28;20195;-79
2023/01/05 11:29:27;;;;;;;26.03;12.57;;;9.60;97.30;;;;;;5049728;28;20203;-77
2023/01/05 11:31:59;;;;;;;21.37;11.97;;;9.60;97.20;;;;;;5052911;28;20568;-78
2023/01/05 11:34:46;;;;;;;24.33;13.07;;;9.70;97.20;;;;;;5046577;28;20206;-79
2023/01/05 11:37:23;;;;;;;23.73;12.40;;;9.70;97.10;;;;;;5049383;28;20206;-78
2023/01/05 11:39:54;;;;;;;24.23;12.53;;;9.80;96.90;;;;;;5049980;28;20249;-77
2023/01/05 11:42:30;;;;;;;20.43;11.73;;;9.80;96.90;;;;;;5043344;28;20883;-77
2023/01/05 11:45:02;;;;;;;25.10;12.50;;;9.80;96.80;;;;;;5050395;28;20198;-78
2023/01/05 11:47:35;;;;;;;24.40;13.33;;;9.80;96.80;;;;;;5047934;28;20191;-78
2023/01/05 11:50:20;;;;;;;24.87;12.53;;;9.90;96.90;;;;;;5044444;28;20858;-79
2023/01/05 11:52:50;;;;;;;22.93;12.07;;;9.90;96.90;;;;;;5046563;28;20212;-76
2023/01/05 11:55:38;;;;;;;24.30;12.73;;;9.90;96.80;;;;;;5044616;28;20819;-78
2023/01/05 11:58:19;;;;;;;27.23;12.77;;;10.00;97.20;;;;;;5047968;28;20217;-76
2023/01/05 12:01:38;;;;;;;24.30;12.40;;;10.00;96.80;;;;;;5045328;28;20697;-78
2023/01/05 12:04:29;;;;;;;23.00;11.77;;;10.10;96.80;;;;;;5027051;28;20195;-79
2023/01/05 12:07:09;;;;;;;23.83;12.30;;;10.20;96.60;;;;;;5042744;28;20195;-78
2023/01/05 12:09:39;;;;;;;22.93;10.93;;;10.30;96.50;;;;;;5044180;28;20268;-77
2023/01/05 12:12:21;;;;;;;23.60;12.13;;;10.40;96.50;;;;;;5042829;28;20234;-77
2023/01/05 12:15:07;;;;;;;21.63;11.33;;;10.50;96.40;;;;;;5047025;28;20240;-77
2023/01/05 12:17:47;;;;;;;25.17;12.13;;;10.60;96.20;;;;;;5049069;28;20191;-80
2023/01/05 12:20:48;;;;;;;22.27;11.83;;;10.60;95.90;;;;;;5043742;28;20205;-77
2023/01/05 12:23:49;;;;;;;24.20;12.00;;;10.70;95.70;;;;;;5050412;28;20676;-77
2023/01/05 12:26:26;;;;;;;24.00;11.83;;;10.80;95.60;;;;;;5052890;28;20206;-77
2023/01/05 12:29:20;;;;;;;22.57;11.20;;;10.90;95.50;;;;;;5041428;28;20610;-77
2023/01/05 12:32:23;;;;;;;22.00;10.83;;;10.90;95.30;;;;;;5044557;28;20417;-79
2023/01/05 12:35:41;;;;;;;20.23;10.90;;;11.00;95.20;;;;;;5042243;28;20202;-79
2023/01/05 12:38:32;;;;;;;22.63;10.90;;;11.20;95.20;;;;;;5046594;28;20188;-78
2023/01/05 12:41:26;;;;;;;21.70;10.87;;;11.20;94.80;;;;;;5046841;28;20222;-80
2023/01/05 12:44:09;;;;;;;21.73;11.38;;;11.20;94.70;;;;;;5049799;28;20502;-77
2023/01/05 12:46:48;;;;;;;21.70;10.17;;;11.40;94.70;;;;;;5047429;28;20199;-79
2023/01/05 12:49:21;;;;;;;23.97;11.73;;;11.40;94.50;;;;;;5043464;28;20316;-78
2023/01/05 12:51:55;;;;;;;24.98;13.10;;;11.50;94.30;;;;;;5041654;28;20833;-77
2023/01/05 12:54:38;;;;;;;22.37;11.37;;;11.50;94.20;;;;;;5052040;28;20670;-78
2023/01/05 12:57:12;;;;;;;23.27;10.57;;;11.60;94.10;;;;;;5050303;28;20527;-76
2023/01/05 12:59:48;;;;;;;22.03;11.20;;;11.60;94.10;;;;;;5045452;28;20253;-76
2023/01/05 13:02:28;;;;;;;20.20;11.37;;;11.60;94.20;;;;;;5045928;28;20249;-78
2023/01/05 13:05:02;;;;;;;22.03;11.23;;;11.70;94.10;;;;;;5048049;28;20199;-79
2023/01/05 13:07:36;;;;;;;19.53;9.83;;;11.80;94.30;;;;;;5046984;28;20249;-79
2023/01/05 13:10:15;;;;;;;18.10;9.50;;;12.00;94.40;;;;;;5044043;28;20710;-77
2023/01/05 13:12:43;;;;;;;19.40;10.50;;;12.20;94.30;;;;;;5049078;28;20207;-78
2023/01/05 13:15:18;;;;;;;16.90;9.07;;;12.50;94.50;;;;;;5047869;28;20207;-78
2023/01/05 13:17:49;;;;;;;16.40;8.40;;;12.70;93.70;;;;;;5038459;28;20222;-79
2023/01/05 13:20:27;;;;;;;22.10;10.53;;;12.80;93.10;;;;;;5045271;28;20248;-79
2023/01/05 13:23:03;;;;;;;16.80;10.10;;;12.90;92.70;;;;;;5047683;28;20648;-78
2023/01/05 13:25:39;;;;;;;23.27;9.97;;;13.10;92.60;;;;;;5043766;28;20651;-79
2023/01/05 13:28:23;;;;;;;20.27;9.80;;;13.20;91.80;;;;;;5042516;28;20211;-78
2023/01/05 13:31:27;;;;;;;20.03;9.60;;;13.40;91.90;;;;;;5049180;28;20559;-78
2023/01/05 13:34:18;;;;;;;19.67;9.37;;;13.80;91.10;;;;;;5041867;28;20679;-79
2023/01/05 13:37:18;;;;;;;14.40;8.37;;;14.20;90.10;;;;;;5042117;28;20199;-79
2023/01/05 13:40:22;;;;;;;15.27;8.20;;;15.20;86.90;;;;;;5048923;28;20191;-80